createdAt,value
2018-07-06T00:00:25.000Z,1017.5
2018-07-06T00:01:24.976Z,1017.5
2018-07-06T00:02:25.120Z,1017.47
2018-07-06T00:03:24.990Z,1017.52
2018-07-06T00:04:24.996Z,1017.49
2018-07-06T00:05:24.983Z,1017.52
2018-07-06T00:06:24.975Z,1017.5
2018-07-06T00:07:24.985Z,1017.49
2018-07-06T00:08:24.991Z,1017.55
2018-07-06T00:09:25.003Z,1017.46
2018-07-06T00:10:24.986Z,1017.45
2018-07-06T00:11:25.001Z,1017.47
2018-07-06T00:12:25.198Z,1017.49
2018-07-06T00:13:24.965Z,1017.45
2018-07-06T00:14:24.994Z,1017.48
2018-07-06T00:15:24.987Z,1017.47
2018-07-06T00:16:24.963Z,1017.47
2018-07-06T00:17:24.989Z,1017.51
2018-07-06T00:18:24.979Z,1017.51
2018-07-06T00:19:25.027Z,1017.56
2018-07-06T00:20:24.989Z,1017.57
2018-07-06T00:21:24.971Z,1017.58
2018-07-06T00:22:24.979Z,1017.54
2018-07-06T00:23:24.993Z,1017.54
2018-07-06T00:24:24.981Z,1017.55
2018-07-06T00:25:25.011Z,1017.53
2018-07-06T00:26:24.978Z,1017.56
2018-07-06T00:27:24.961Z,1017.55
2018-07-06T00:28:24.966Z,1017.53
2018-07-06T00:29:25.012Z,1017.56
2018-07-06T00:30:25.000Z,1017.54
2018-07-06T00:31:24.990Z,1017.55
2018-07-06T00:32:24.955Z,1017.53
2018-07-06T00:33:25.050Z,1017.56
2018-07-06T00:34:25.041Z,1017.58
2018-07-06T00:35:25.003Z,1017.58
2018-07-06T00:36:25.011Z,1017.56
2018-07-06T00:37:24.980Z,1017.55
2018-07-06T00:38:24.979Z,1017.59
2018-07-06T00:39:24.970Z,1017.59
2018-07-06T00:40:24.983Z,1017.61
2018-07-06T00:41:24.989Z,1017.61
2018-07-06T00:42:24.988Z,1017.64
2018-07-06T00:43:24.997Z,1017.66
2018-07-06T00:44:24.977Z,1017.67
2018-07-06T00:45:24.974Z,1017.67
2018-07-06T00:46:25.088Z,1017.66
2018-07-06T00:47:25.070Z,1017.67
2018-07-06T00:48:25.026Z,1017.69
2018-07-06T00:49:25.043Z,1017.73
2018-07-06T00:50:24.960Z,1017.7
2018-07-06T00:51:25.038Z,1017.69
2018-07-06T00:52:24.964Z,1017.69
2018-07-06T00:53:24.954Z,1017.7
2018-07-06T00:54:24.963Z,1017.71
2018-07-06T00:55:24.955Z,1017.72
2018-07-06T00:56:25.057Z,1017.74
2018-07-06T00:57:25.007Z,1017.76
2018-07-06T00:58:24.979Z,1017.77
2018-07-06T00:59:24.975Z,1017.78
2018-07-06T01:00:25.049Z,1017.79
2018-07-06T01:01:25.018Z,1017.85
2018-07-06T01:02:24.990Z,1017.76
2018-07-06T01:03:25.024Z,1017.8
2018-07-06T01:04:25.099Z,1017.77
2018-07-06T01:05:24.978Z,1017.77
2018-07-06T01:06:24.974Z,1017.79
2018-07-06T01:07:25.030Z,1017.78
2018-07-06T01:08:24.993Z,1017.77
2018-07-06T01:09:25.016Z,1017.72
2018-07-06T01:10:25.000Z,1017.75
2018-07-06T01:11:24.951Z,1017.78
2018-07-06T01:12:24.961Z,1017.74
2018-07-06T01:13:24.993Z,1017.74
2018-07-06T01:14:24.971Z,1017.75
2018-07-06T01:15:24.963Z,1017.72
2018-07-06T01:16:24.971Z,1017.74
2018-07-06T01:17:25.127Z,1017.77
2018-07-06T01:18:24.962Z,1017.72
2018-07-06T01:19:24.977Z,1017.76
2018-07-06T01:20:24.964Z,1017.72
2018-07-06T01:21:24.982Z,1017.75
2018-07-06T01:22:24.990Z,1017.76
2018-07-06T01:23:24.956Z,1017.77
2018-07-06T01:24:24.972Z,1017.75
2018-07-06T01:25:24.952Z,1017.78
2018-07-06T01:26:24.960Z,1017.74
2018-07-06T01:27:24.944Z,1017.73
2018-07-06T01:28:25.321Z,1017.76
2018-07-06T01:29:24.962Z,1017.74
2018-07-06T01:30:24.969Z,1017.77
2018-07-06T01:31:24.988Z,1017.78
2018-07-06T01:32:24.971Z,1017.77
2018-07-06T01:33:25.054Z,1017.8
2018-07-06T01:34:24.987Z,1017.78
2018-07-06T01:35:24.993Z,1017.82
2018-07-06T01:36:24.955Z,1017.81
2018-07-06T01:37:24.995Z,1017.81
2018-07-06T01:38:24.960Z,1017.78
2018-07-06T01:39:24.957Z,1017.77
2018-07-06T01:40:24.948Z,1017.73
2018-07-06T01:41:25.035Z,1017.81
2018-07-06T01:42:25.106Z,1017.8
2018-07-06T01:43:24.984Z,1017.79
2018-07-06T01:44:24.944Z,1017.82
2018-07-06T01:45:25.000Z,1017.77
2018-07-06T01:46:24.982Z,1017.75
2018-07-06T01:47:24.956Z,1017.75
2018-07-06T01:48:24.976Z,1017.74
2018-07-06T01:49:24.980Z,1017.75
2018-07-06T01:50:24.948Z,1017.73
2018-07-06T01:51:24.943Z,1017.68
2018-07-06T01:52:24.949Z,1017.7
2018-07-06T01:53:24.954Z,1017.7
2018-07-06T01:54:24.953Z,1017.68
2018-07-06T01:55:24.958Z,1017.66
2018-07-06T01:56:24.945Z,1017.67
2018-07-06T01:57:25.066Z,1017.7
2018-07-06T01:58:25.039Z,1017.71
2018-07-06T01:59:24.988Z,1017.66
2018-07-06T02:00:25.159Z,1017.7
2018-07-06T02:01:25.044Z,1017.69
2018-07-06T02:02:24.938Z,1017.67
2018-07-06T02:03:24.987Z,1017.69
2018-07-06T02:04:25.001Z,1017.7
2018-07-06T02:05:24.962Z,1017.74
2018-07-06T02:06:24.932Z,1017.72
2018-07-06T02:07:24.936Z,1017.71
2018-07-06T02:08:25.143Z,1017.73
2018-07-06T02:09:25.090Z,1017.79
2018-07-06T02:10:24.960Z,1017.78
2018-07-06T02:11:24.956Z,1017.77
2018-07-06T02:12:24.929Z,1017.79
2018-07-06T02:13:24.984Z,1017.8
2018-07-06T02:14:24.939Z,1017.78
2018-07-06T02:15:25.044Z,1017.85
2018-07-06T02:16:25.004Z,1017.84
2018-07-06T02:17:24.941Z,1017.81
2018-07-06T02:18:25.073Z,1017.8
2018-07-06T02:19:25.015Z,1017.84
2018-07-06T02:20:24.924Z,1017.83
2018-07-06T02:21:24.936Z,1017.8
2018-07-06T02:22:24.940Z,1017.81
2018-07-06T02:23:24.991Z,1017.85
2018-07-06T02:24:24.979Z,1017.85
2018-07-06T02:25:24.940Z,1017.83
2018-07-06T02:26:24.963Z,1017.86
2018-07-06T02:27:24.951Z,1017.84
2018-07-06T02:28:24.970Z,1017.82
2018-07-06T02:29:24.965Z,1017.82
2018-07-06T02:30:25.007Z,1017.85
2018-07-06T02:31:25.072Z,1017.85
2018-07-06T02:32:24.939Z,1017.84
2018-07-06T02:33:24.975Z,1017.86
2018-07-06T02:34:24.940Z,1017.88
2018-07-06T02:35:24.939Z,1017.89
2018-07-06T02:36:24.927Z,1017.87
2018-07-06T02:37:24.950Z,1017.9
2018-07-06T02:38:24.960Z,1017.91
2018-07-06T02:39:24.937Z,1017.9
2018-07-06T02:40:24.939Z,1017.9
2018-07-06T02:41:24.935Z,1017.91
2018-07-06T02:42:24.932Z,1017.87
2018-07-06T02:43:24.992Z,1017.91
2018-07-06T02:44:24.961Z,1017.94
2018-07-06T02:45:24.928Z,1017.91
2018-07-06T02:46:24.936Z,1017.92
2018-07-06T02:47:24.964Z,1017.91
2018-07-06T02:48:24.926Z,1017.93
2018-07-06T02:49:24.959Z,1017.95
2018-07-06T02:50:24.963Z,1017.97
2018-07-06T02:51:25.076Z,1017.94
2018-07-06T02:52:24.950Z,1017.99
2018-07-06T02:53:24.929Z,1017.97
2018-07-06T02:54:24.984Z,1017.98
2018-07-06T02:55:24.947Z,1017.98
2018-07-06T02:56:24.947Z,1017.97
2018-07-06T02:57:24.983Z,1018.03
2018-07-06T02:58:25.006Z,1017.98
2018-07-06T02:59:24.954Z,1018
2018-07-06T03:00:24.953Z,1018.01
2018-07-06T03:01:24.956Z,1018.03
2018-07-06T03:02:24.975Z,1018.04
2018-07-06T03:03:25.667Z,1018.03
2018-07-06T03:04:25.220Z,1018.02
2018-07-06T03:05:24.934Z,1018.03
2018-07-06T03:06:24.976Z,1018.03
2018-07-06T03:07:24.934Z,1018.03
2018-07-06T03:08:24.964Z,1018
2018-07-06T03:09:24.967Z,1018
2018-07-06T03:10:24.955Z,1018.03
2018-07-06T03:11:25.190Z,1018
2018-07-06T03:12:24.968Z,1018.03
2018-07-06T03:13:25.130Z,1018.03
2018-07-06T03:14:24.997Z,1018.03
2018-07-06T03:15:24.943Z,1018.08
2018-07-06T03:16:24.961Z,1018.08
2018-07-06T03:17:24.944Z,1018.03
2018-07-06T03:18:24.959Z,1018.04
2018-07-06T03:19:24.958Z,1018.05
2018-07-06T03:20:25.116Z,1018.06
2018-07-06T03:21:24.928Z,1018.06
2018-07-06T03:22:24.965Z,1018.06
2018-07-06T03:23:24.954Z,1018.04
2018-07-06T03:24:24.947Z,1018.09
2018-07-06T03:25:24.998Z,1018.06
2018-07-06T03:26:25.053Z,1018.05
2018-07-06T03:27:24.914Z,1018.08
2018-07-06T03:28:25.380Z,1018.02
2018-07-06T03:29:24.970Z,1018.07
2018-07-06T03:30:24.932Z,1018.05
2018-07-06T03:31:24.975Z,1018.05
2018-07-06T03:32:24.924Z,1018.06
2018-07-06T03:33:24.924Z,1018.05
2018-07-06T03:34:24.974Z,1018.07
2018-07-06T03:35:25.000Z,1018.05
2018-07-06T03:36:24.909Z,1018.08
2018-07-06T03:37:25.104Z,1018.11
2018-07-06T03:38:24.920Z,1018.08
2018-07-06T03:39:25.013Z,1018.12
2018-07-06T03:40:24.967Z,1018.08
2018-07-06T03:41:24.969Z,1018.12
2018-07-06T03:42:25.161Z,1018.08
2018-07-06T03:43:24.906Z,1018.08
2018-07-06T03:44:24.911Z,1018.09
2018-07-06T03:45:24.969Z,1018.07
2018-07-06T03:46:24.946Z,1018.09
2018-07-06T03:47:24.931Z,1018.1
2018-07-06T03:48:24.913Z,1018.11
2018-07-06T03:49:26.373Z,1018.12
2018-07-06T03:50:24.936Z,1018.13
2018-07-06T03:51:24.931Z,1018.13
2018-07-06T03:52:24.912Z,1018.1
2018-07-06T03:53:24.932Z,1018.09
2018-07-06T03:54:24.939Z,1018.05
2018-07-06T03:55:24.906Z,1018.13
2018-07-06T03:56:24.931Z,1018.15
2018-07-06T03:57:24.934Z,1018.15
2018-07-06T03:58:24.923Z,1018.16
2018-07-06T03:59:24.955Z,1018.21
2018-07-06T04:00:24.958Z,1018.21
2018-07-06T04:01:24.898Z,1018.23
2018-07-06T04:02:24.913Z,1018.24
2018-07-06T04:03:24.962Z,1018.24
2018-07-06T04:04:24.935Z,1018.21
2018-07-06T04:05:24.944Z,1018.21
2018-07-06T04:06:24.912Z,1018.22
2018-07-06T04:07:25.096Z,1018.2
2018-07-06T04:08:24.962Z,1018.22
2018-07-06T04:09:24.952Z,1018.26
2018-07-06T04:10:25.013Z,1018.33
2018-07-06T04:11:24.915Z,1018.29
2018-07-06T04:12:25.092Z,1018.31
2018-07-06T04:13:24.932Z,1018.27
2018-07-06T04:14:24.924Z,1018.35
2018-07-06T04:15:25.057Z,1018.32
2018-07-06T04:16:24.954Z,1018.32
2018-07-06T04:17:25.033Z,1018.33
2018-07-06T04:18:24.964Z,1018.36
2018-07-06T04:19:24.970Z,1018.34
2018-07-06T04:20:24.972Z,1018.36
2018-07-06T04:21:24.916Z,1018.33
2018-07-06T04:22:24.889Z,1018.36
2018-07-06T04:23:24.999Z,1018.33
2018-07-06T04:24:24.951Z,1018.35
2018-07-06T04:25:24.966Z,1018.37
2018-07-06T04:26:24.991Z,1018.37
2018-07-06T04:27:24.960Z,1018.35
2018-07-06T04:28:24.952Z,1018.36
2018-07-06T04:29:24.925Z,1018.36
2018-07-06T04:30:24.976Z,1018.4
2018-07-06T04:31:24.915Z,1018.38
2018-07-06T04:32:24.961Z,1018.43
2018-07-06T04:33:24.939Z,1018.48
2018-07-06T04:34:24.928Z,1018.45
2018-07-06T04:35:24.945Z,1018.46
2018-07-06T04:36:24.952Z,1018.48
2018-07-06T04:37:24.965Z,1018.49
2018-07-06T04:38:24.894Z,1018.48
2018-07-06T04:39:24.908Z,1018.48
2018-07-06T04:40:24.970Z,1018.47
2018-07-06T04:41:24.981Z,1018.52
2018-07-06T04:42:24.960Z,1018.53
2018-07-06T04:43:24.989Z,1018.56
2018-07-06T04:44:24.909Z,1018.6
2018-07-06T04:45:25.084Z,1018.59
2018-07-06T04:46:24.914Z,1018.6
2018-07-06T04:47:24.895Z,1018.57
2018-07-06T04:48:24.923Z,1018.59
2018-07-06T04:49:24.980Z,1018.6
2018-07-06T04:50:24.940Z,1018.61
2018-07-06T04:51:24.898Z,1018.67
2018-07-06T04:52:24.899Z,1018.65
2018-07-06T04:53:25.017Z,1018.7
2018-07-06T04:54:24.967Z,1018.64
2018-07-06T04:55:24.910Z,1018.64
2018-07-06T04:56:24.901Z,1018.66
2018-07-06T04:57:24.904Z,1018.7
2018-07-06T04:58:24.939Z,1018.69
2018-07-06T04:59:24.920Z,1018.68
2018-07-06T05:00:24.922Z,1018.68
2018-07-06T05:01:24.910Z,1018.7
2018-07-06T05:02:24.946Z,1018.67
2018-07-06T05:03:24.932Z,1018.71
2018-07-06T05:04:24.920Z,1018.71
2018-07-06T05:05:24.932Z,1018.7
2018-07-06T05:06:24.896Z,1018.73
2018-07-06T05:07:24.898Z,1018.74
2018-07-06T05:08:24.908Z,1018.77
2018-07-06T05:09:24.945Z,1018.73
2018-07-06T05:10:24.923Z,1018.74
2018-07-06T05:11:24.921Z,1018.81
2018-07-06T05:12:24.875Z,1018.75
2018-07-06T05:13:24.896Z,1018.76
2018-07-06T05:14:24.879Z,1018.79
2018-07-06T05:15:24.948Z,1018.77
2018-07-06T05:16:24.983Z,1018.81
2018-07-06T05:17:24.917Z,1018.8
2018-07-06T05:18:24.916Z,1018.82
2018-07-06T05:19:24.944Z,1018.83
2018-07-06T05:20:24.930Z,1018.83
2018-07-06T05:21:24.996Z,1018.79
2018-07-06T05:22:24.907Z,1018.86
2018-07-06T05:23:24.933Z,1018.88
2018-07-06T05:24:24.915Z,1018.84
2018-07-06T05:25:25.049Z,1018.85
2018-07-06T05:26:24.927Z,1018.9
2018-07-06T05:27:24.921Z,1018.91
2018-07-06T05:28:24.939Z,1018.92
2018-07-06T05:29:25.011Z,1018.92
2018-07-06T05:30:24.997Z,1018.95
2018-07-06T05:31:24.920Z,1018.92
2018-07-06T05:32:25.012Z,1018.94
2018-07-06T05:33:24.925Z,1018.94
2018-07-06T05:34:24.951Z,1018.92
2018-07-06T05:35:24.897Z,1018.95
2018-07-06T05:36:24.873Z,1018.89
2018-07-06T05:37:24.941Z,1018.94
2018-07-06T05:38:24.919Z,1018.94
2018-07-06T05:39:24.935Z,1018.95
2018-07-06T05:40:24.931Z,1018.97
2018-07-06T05:41:24.962Z,1018.96
2018-07-06T05:42:24.967Z,1018.94
2018-07-06T05:43:25.191Z,1018.98
2018-07-06T05:44:24.993Z,1018.95
2018-07-06T05:45:24.885Z,1018.93
2018-07-06T05:46:25.276Z,1018.94
2018-07-06T05:47:25.143Z,1018.9
2018-07-06T05:48:25.003Z,1018.89
2018-07-06T05:49:24.883Z,1018.92
2018-07-06T05:50:24.896Z,1018.9
2018-07-06T05:51:24.945Z,1018.96
2018-07-06T05:52:24.924Z,1018.95
2018-07-06T05:53:25.109Z,1019
2018-07-06T05:54:24.950Z,1019.01
2018-07-06T05:55:24.907Z,1018.95
2018-07-06T05:56:24.880Z,1018.95
2018-07-06T05:57:24.980Z,1018.99
2018-07-06T05:58:24.911Z,1018.97
2018-07-06T05:59:24.974Z,1018.99
2018-07-06T06:00:24.908Z,1019.02
2018-07-06T06:01:24.928Z,1019.02
2018-07-06T06:02:24.965Z,1019.01
2018-07-06T06:03:25.064Z,1019
2018-07-06T06:04:24.933Z,1019.07
2018-07-06T06:05:24.871Z,1019.02
2018-07-06T06:06:25.000Z,1019.03
2018-07-06T06:07:24.937Z,1019.02
2018-07-06T06:08:24.880Z,1019.05
2018-07-06T06:09:24.918Z,1019.07
2018-07-06T06:10:24.928Z,1019.11
2018-07-06T06:11:25.079Z,1019.13
2018-07-06T06:12:25.013Z,1019.11
2018-07-06T06:13:25.206Z,1019.12
2018-07-06T06:14:25.316Z,1019.11
2018-07-06T06:15:25.093Z,1019.13
2018-07-06T06:16:25.185Z,1019.1
2018-07-06T06:17:24.896Z,1019.1
2018-07-06T06:18:25.055Z,1019.1
2018-07-06T06:19:24.876Z,1019.17
2018-07-06T06:20:24.885Z,1019.16
2018-07-06T06:21:24.867Z,1019.12
2018-07-06T06:22:24.854Z,1019.11
2018-07-06T06:23:24.891Z,1019.14
2018-07-06T06:24:24.855Z,1019.14
2018-07-06T06:25:24.888Z,1019.15
2018-07-06T06:26:24.838Z,1019.16
2018-07-06T06:27:24.970Z,1019.18
2018-07-06T06:28:24.950Z,1019.14
2018-07-06T06:29:24.950Z,1019.15
2018-07-06T06:30:24.930Z,1019.17
2018-07-06T06:31:24.936Z,1019.17
2018-07-06T06:32:24.885Z,1019.21
2018-07-06T06:33:25.551Z,1019.21
2018-07-06T06:34:25.027Z,1019.23
2018-07-06T06:35:24.940Z,1019.24
2018-07-06T06:36:25.063Z,1019.25
2018-07-06T06:37:24.954Z,1019.22
2018-07-06T06:38:24.992Z,1019.23
2018-07-06T06:39:24.916Z,1019.23
2018-07-06T06:40:24.975Z,1019.24
2018-07-06T06:41:24.883Z,1019.29
2018-07-06T06:42:24.991Z,1019.25
2018-07-06T06:43:25.071Z,1019.27
2018-07-06T06:44:24.896Z,1019.26
2018-07-06T06:45:25.176Z,1019.27
2018-07-06T06:46:24.945Z,1019.23
2018-07-06T06:47:24.928Z,1019.27
2018-07-06T06:48:24.969Z,1019.26
2018-07-06T06:49:24.950Z,1019.26
2018-07-06T06:50:25.056Z,1019.26
2018-07-06T06:51:24.889Z,1019.24
2018-07-06T06:52:24.932Z,1019.29
2018-07-06T06:53:25.040Z,1019.29
2018-07-06T06:54:24.971Z,1019.29
2018-07-06T06:55:24.874Z,1019.33
2018-07-06T06:56:24.934Z,1019.29
2018-07-06T06:57:25.073Z,1019.26
2018-07-06T06:58:24.852Z,1019.29
2018-07-06T06:59:25.020Z,1019.32
2018-07-06T07:00:27.984Z,1019.32
2018-07-06T07:01:25.083Z,1019.32
2018-07-06T07:02:24.983Z,1019.27
2018-07-06T07:03:25.025Z,1019.33
2018-07-06T07:04:24.930Z,1019.26
2018-07-06T07:05:24.944Z,1019.34
2018-07-06T07:06:24.975Z,1019.37
2018-07-06T07:07:25.236Z,1019.33
2018-07-06T07:08:25.428Z,1019.32
2018-07-06T07:09:24.981Z,1019.29
2018-07-06T07:10:25.025Z,1019.31
2018-07-06T07:11:24.925Z,1019.33
2018-07-06T07:12:24.912Z,1019.3
2018-07-06T07:13:24.919Z,1019.29
2018-07-06T07:14:25.074Z,1019.33
2018-07-06T07:15:24.964Z,1019.31
2018-07-06T07:16:24.981Z,1019.31
2018-07-06T07:17:24.867Z,1019.33
2018-07-06T07:18:24.869Z,1019.33
2018-07-06T07:19:24.931Z,1019.36
2018-07-06T07:20:24.870Z,1019.36
2018-07-06T07:21:24.862Z,1019.4
2018-07-06T07:22:24.874Z,1019.39
2018-07-06T07:23:24.932Z,1019.39
2018-07-06T07:24:24.939Z,1019.37
2018-07-06T07:25:24.832Z,1019.4
2018-07-06T07:26:24.843Z,1019.41
2018-07-06T07:27:24.952Z,1019.41
2018-07-06T07:28:24.957Z,1019.44
2018-07-06T07:29:24.880Z,1019.39
2018-07-06T07:30:24.864Z,1019.42
2018-07-06T07:31:24.863Z,1019.43
2018-07-06T07:32:24.892Z,1019.43
2018-07-06T07:33:24.879Z,1019.42
2018-07-06T07:34:24.859Z,1019.43
2018-07-06T07:35:24.883Z,1019.47
2018-07-06T07:36:25.330Z,1019.45
2018-07-06T07:37:24.918Z,1019.39
2018-07-06T07:38:24.841Z,1019.44
2018-07-06T07:39:25.005Z,1019.46
2018-07-06T07:40:24.878Z,1019.43
2018-07-06T07:41:24.927Z,1019.4
2018-07-06T07:42:24.984Z,1019.44
2018-07-06T07:43:24.854Z,1019.43
2018-07-06T07:44:24.956Z,1019.46
2018-07-06T07:45:25.065Z,1019.43
2018-07-06T07:46:25.008Z,1019.43
2018-07-06T07:47:24.920Z,1019.51
2018-07-06T07:48:24.900Z,1019.48
2018-07-06T07:49:24.932Z,1019.43
2018-07-06T07:50:25.405Z,1019.47
2018-07-06T07:51:24.853Z,1019.46
2018-07-06T07:52:24.995Z,1019.55
2018-07-06T07:53:26.382Z,1019.54
2018-07-06T07:54:24.984Z,1019.51
2018-07-06T07:55:24.961Z,1019.51
2018-07-06T07:56:24.901Z,1019.52
2018-07-06T07:57:24.965Z,1019.51
2018-07-06T07:58:24.925Z,1019.54
2018-07-06T07:59:24.902Z,1019.51
2018-07-06T08:00:25.147Z,1019.51
2018-07-06T08:01:25.415Z,1019.55
2018-07-06T08:02:24.926Z,1019.53
2018-07-06T08:03:24.948Z,1019.6
2018-07-06T08:04:25.001Z,1019.56
2018-07-06T08:05:24.890Z,1019.59
2018-07-06T08:06:24.972Z,1019.64
2018-07-06T08:07:24.836Z,1019.63
2018-07-06T08:08:24.911Z,1019.67
2018-07-06T08:09:24.903Z,1019.62
2018-07-06T08:10:24.984Z,1019.67
2018-07-06T08:11:24.916Z,1019.68
2018-07-06T08:12:24.836Z,1019.63
2018-07-06T08:13:24.917Z,1019.63
2018-07-06T08:14:25.033Z,1019.64
2018-07-06T08:15:24.929Z,1019.68
2018-07-06T08:16:24.958Z,1019.66
2018-07-06T08:17:24.844Z,1019.62
2018-07-06T08:18:25.058Z,1019.64
2018-07-06T08:19:24.922Z,1019.67
2018-07-06T08:20:24.915Z,1019.66
2018-07-06T08:21:25.006Z,1019.7
2018-07-06T08:22:24.929Z,1019.73
2018-07-06T08:23:24.866Z,1019.72
2018-07-06T08:24:24.954Z,1019.74
2018-07-06T08:25:24.907Z,1019.76
2018-07-06T08:26:24.890Z,1019.75
2018-07-06T08:27:24.880Z,1019.74
2018-07-06T08:28:25.002Z,1019.75
2018-07-06T08:29:25.040Z,1019.73
2018-07-06T08:30:25.172Z,1019.79
2018-07-06T08:31:24.887Z,1019.78
2018-07-06T08:32:24.919Z,1019.79
2018-07-06T08:33:24.831Z,1019.78
2018-07-06T08:34:24.839Z,1019.79
2018-07-06T08:35:24.829Z,1019.82
2018-07-06T08:36:24.904Z,1019.84
2018-07-06T08:37:24.904Z,1019.84
2018-07-06T08:38:24.819Z,1019.89
2018-07-06T08:39:25.134Z,1019.91
2018-07-06T08:40:24.861Z,1019.92
2018-07-06T08:41:24.829Z,1019.91
2018-07-06T08:42:24.847Z,1019.89
2018-07-06T08:43:24.849Z,1019.97
2018-07-06T08:44:24.860Z,1019.95
2018-07-06T08:45:24.845Z,1019.98
2018-07-06T08:46:24.829Z,1019.93
2018-07-06T08:47:24.854Z,1019.92
2018-07-06T08:48:24.910Z,1019.92
2018-07-06T08:49:25.002Z,1019.94
2018-07-06T08:50:25.089Z,1019.96
2018-07-06T08:51:25.510Z,1019.99
2018-07-06T08:52:25.014Z,1019.94
2018-07-06T08:53:24.852Z,1019.98
2018-07-06T08:54:24.957Z,1019.96
2018-07-06T08:55:24.926Z,1019.96
2018-07-06T08:56:24.944Z,1019.99
2018-07-06T08:57:25.048Z,1019.97
2018-07-06T08:58:24.973Z,1020
2018-07-06T08:59:24.839Z,1019.97
2018-07-06T09:00:24.926Z,1019.98
2018-07-06T09:01:24.951Z,1019.93
2018-07-06T09:02:24.859Z,1019.96
2018-07-06T09:03:24.966Z,1019.94
2018-07-06T09:04:25.767Z,1019.98
2018-07-06T09:05:24.980Z,1019.97
2018-07-06T09:06:25.114Z,1019.94
2018-07-06T09:07:24.821Z,1019.94
2018-07-06T09:08:24.852Z,1019.91
2018-07-06T09:09:25.092Z,1019.95
2018-07-06T09:10:25.489Z,1019.96
2018-07-06T09:11:25.151Z,1019.99
2018-07-06T09:12:24.981Z,1019.98
2018-07-06T09:13:24.847Z,1019.99
2018-07-06T09:14:25.068Z,1020
2018-07-06T09:15:24.950Z,1019.99
2018-07-06T09:16:24.803Z,1019.98
2018-07-06T09:17:24.872Z,1019.98
2018-07-06T09:18:24.834Z,1019.97
2018-07-06T09:19:24.953Z,1020.04
2018-07-06T09:20:24.992Z,1020.03
2018-07-06T09:21:24.992Z,1019.98
2018-07-06T09:22:24.852Z,1020
2018-07-06T09:23:24.919Z,1020.07
2018-07-06T09:24:24.943Z,1020.01
2018-07-06T09:25:25.948Z,1020
2018-07-06T09:26:24.874Z,1019.99
2018-07-06T09:27:24.858Z,1019.97
2018-07-06T09:28:24.824Z,1020.02
2018-07-06T09:29:24.911Z,1020.01
2018-07-06T09:30:24.977Z,1020.07
2018-07-06T09:31:25.058Z,1020.03
2018-07-06T09:32:25.146Z,1020.02
2018-07-06T09:33:25.304Z,1020.09
2018-07-06T09:34:24.815Z,1020.09
2018-07-06T09:35:24.996Z,1020.06
2018-07-06T09:36:24.815Z,1020.1
2018-07-06T09:37:24.953Z,1020.06
2018-07-06T09:38:24.843Z,1020.01
2018-07-06T09:39:24.897Z,1020.01
2018-07-06T09:40:24.816Z,1019.98
2018-07-06T09:41:24.956Z,1019.98
2018-07-06T09:42:24.952Z,1019.99
2018-07-06T09:43:25.303Z,1019.9
2018-07-06T09:44:24.859Z,1020.04
2018-07-06T09:45:24.817Z,1019.99
2018-07-06T09:46:24.801Z,1020.01
2018-07-06T09:47:24.805Z,1020.04
2018-07-06T09:48:24.887Z,1020.03
2018-07-06T09:49:24.836Z,1020.04
2018-07-06T09:50:24.803Z,1020.07
2018-07-06T09:51:24.879Z,1020.08
2018-07-06T09:52:24.896Z,1020.04
2018-07-06T09:53:24.837Z,1020.09
2018-07-06T09:54:24.833Z,1020.05
2018-07-06T09:55:24.833Z,1020.03
2018-07-06T09:56:24.893Z,1020.03
2018-07-06T09:57:27.093Z,1019.93
2018-07-06T09:58:24.791Z,1019.96
2018-07-06T09:59:24.805Z,1019.91
2018-07-06T10:00:24.829Z,1019.97
2018-07-06T10:01:25.042Z,1020.01
2018-07-06T10:02:24.855Z,1020.02
2018-07-06T10:03:24.815Z,1020.05
2018-07-06T10:04:25.611Z,1019.98
2018-07-06T10:05:24.968Z,1020
2018-07-06T10:06:24.837Z,1020.01
2018-07-06T10:07:24.935Z,1020
2018-07-06T10:08:25.976Z,1020.04
2018-07-06T10:09:25.039Z,1020.03
2018-07-06T10:10:24.967Z,1020.06
2018-07-06T10:11:24.968Z,1020.03
2018-07-06T10:12:24.968Z,1020.03
2018-07-06T10:13:24.891Z,1020.04
2018-07-06T10:14:25.174Z,1020.05
2018-07-06T10:15:25.081Z,1020.05
2018-07-06T10:16:24.985Z,1019.99
2018-07-06T10:17:24.894Z,1020
2018-07-06T10:18:25.213Z,1019.88
2018-07-06T10:19:25.198Z,1019.97
2018-07-06T10:20:25.113Z,1020.01
2018-07-06T10:21:25.015Z,1020.03
2018-07-06T10:22:24.948Z,1020.04
2018-07-06T10:23:24.824Z,1020.09
2018-07-06T10:24:24.952Z,1020.06
2018-07-06T10:25:24.848Z,1020.05
2018-07-06T10:26:25.872Z,1020.06
2018-07-06T10:27:24.952Z,1019.99
2018-07-06T10:28:25.073Z,1020.02
2018-07-06T10:29:25.180Z,1020.1
2018-07-06T10:30:25.098Z,1020.08
2018-07-06T10:31:25.012Z,1020.09
2018-07-06T10:32:25.106Z,1020.09
2018-07-06T10:33:25.111Z,1020.09
2018-07-06T10:34:25.129Z,1020.11
2018-07-06T10:35:25.014Z,1020.1
2018-07-06T10:36:24.935Z,1020.06
2018-07-06T10:37:25.044Z,1020.05
2018-07-06T10:38:25.044Z,1020.03
2018-07-06T10:39:26.083Z,1020.04
2018-07-06T10:40:24.959Z,1020.05
2018-07-06T10:41:24.957Z,1020.09
2018-07-06T10:42:24.965Z,1020.03
2018-07-06T10:43:24.779Z,1020.05
2018-07-06T10:44:24.883Z,1020.03
2018-07-06T10:45:24.908Z,1020.07
2018-07-06T10:46:25.000Z,1020.01
2018-07-06T10:47:25.314Z,1020.02
2018-07-06T10:48:24.803Z,1020.06
2018-07-06T10:49:25.031Z,1020.05
2018-07-06T10:50:24.899Z,1020.01
2018-07-06T10:51:24.944Z,1020.07
2018-07-06T10:52:24.942Z,1020.04
2018-07-06T10:53:24.849Z,1020.03
2018-07-06T10:54:25.059Z,1019.99
2018-07-06T10:55:25.899Z,1019.99
2018-07-06T10:56:24.786Z,1019.99
2018-07-06T10:57:24.874Z,1020.05
2018-07-06T10:58:24.906Z,1020.1
2018-07-06T10:59:25.077Z,1020.05
2018-07-06T11:00:24.898Z,1020.03
2018-07-06T11:01:24.905Z,1019.99
2018-07-06T11:02:24.913Z,1020
2018-07-06T11:03:24.781Z,1019.99
2018-07-06T11:04:25.029Z,1020.02
2018-07-06T11:05:25.036Z,1019.99
2018-07-06T11:06:24.801Z,1020.01
2018-07-06T11:07:24.768Z,1020.01
2018-07-06T11:08:25.871Z,1019.99
2018-07-06T11:09:24.780Z,1019.98
2018-07-06T11:10:24.890Z,1019.94
2018-07-06T11:11:24.885Z,1019.94
2018-07-06T11:12:24.867Z,1019.96
2018-07-06T11:13:24.987Z,1019.93
2018-07-06T11:14:24.789Z,1019.94
2018-07-06T11:15:24.778Z,1019.94
2018-07-06T11:16:25.108Z,1019.96
2018-07-06T11:17:24.910Z,1019.99
2018-07-06T11:18:24.801Z,1020.01
2018-07-06T11:19:25.044Z,1020
2018-07-06T11:20:25.039Z,1020.03
2018-07-06T11:21:24.792Z,1019.99
2018-07-06T11:22:25.054Z,1020.02
2018-07-06T11:23:24.917Z,1019.96
2018-07-06T11:24:25.160Z,1020.01
2018-07-06T11:25:25.175Z,1019.94
2018-07-06T11:26:24.989Z,1019.93
2018-07-06T11:27:24.843Z,1019.92
2018-07-06T11:28:25.189Z,1019.96
2018-07-06T11:29:24.826Z,1019.98
2018-07-06T11:30:24.925Z,1019.94
2018-07-06T11:31:25.012Z,1019.93
2018-07-06T11:32:24.780Z,1019.9
2018-07-06T11:33:24.944Z,1019.92
2018-07-06T11:34:25.028Z,1020.02
2018-07-06T11:35:25.244Z,1020.01
2018-07-06T11:36:24.819Z,1019.97
2018-07-06T11:37:25.976Z,1019.99
2018-07-06T11:38:24.976Z,1020.01
2018-07-06T11:39:24.804Z,1020.03
2018-07-06T11:40:24.969Z,1019.96
2018-07-06T11:41:24.960Z,1019.97
2018-07-06T11:42:24.971Z,1019.96
2018-07-06T11:43:24.969Z,1019.88
2018-07-06T11:44:25.013Z,1019.86
2018-07-06T11:45:24.936Z,1019.87
2018-07-06T11:46:24.912Z,1019.88
2018-07-06T11:47:24.800Z,1019.89
2018-07-06T11:48:24.770Z,1019.91
2018-07-06T11:49:26.101Z,1019.97
2018-07-06T11:50:25.067Z,1019.92
2018-07-06T11:51:24.966Z,1019.92
2018-07-06T11:52:24.958Z,1019.91
2018-07-06T11:53:24.933Z,1019.89
2018-07-06T11:54:24.824Z,1019.89
2018-07-06T11:55:25.092Z,1019.89
2018-07-06T11:56:25.477Z,1019.91
2018-07-06T11:57:24.796Z,1019.87
2018-07-06T11:58:25.120Z,1019.81
2018-07-06T11:59:24.782Z,1019.89
2018-07-06T12:00:24.918Z,1019.89
2018-07-06T12:01:24.927Z,1019.92
2018-07-06T12:02:24.896Z,1019.86
2018-07-06T12:03:24.913Z,1019.94
2018-07-06T12:04:25.359Z,1019.9
2018-07-06T12:05:24.953Z,1019.92
2018-07-06T12:06:24.962Z,1019.89
2018-07-06T12:07:24.847Z,1019.84
2018-07-06T12:08:24.957Z,1019.82